Time;durP1;ratioP1;P1;durP2;ratioP2;P2;SDS_P1;SDS_P2;PMS_P1;PMS_P2;Temp;Humidity;BMP_temperature;BMP_pressure;BME280_temperature;BME280_humidity;BME280_pressure;Samples;Min_cycle;Max_cycle;Signal;HPM_P1;HPM_P2
2021/04/13 00:04:56;;;;;;;9.30;6.20;;;;;;;1.16;84.08;99260.22;468555;1196;103213;-40
2021/04/13 00:15:02;;;;;;;7.67;6.10;;;;;;;1.10;83.62;99289.49;469163;1195;103213;-40
2021/04/13 00:25:08;;;;;;;7.53;6.00;;;;;;;1.03;84.00;99300.69;468971;1196;103225;-40
2021/04/13 00:35:19;;;;;;;7.00;5.80;;;;;;;1.00;84.41;99312.23;468678;1196;103621;-42
2021/04/13 00:45:25;;;;;;;7.93;5.87;;;;;;;0.97;84.21;99307.33;468677;1196;103701;-42
2021/04/13 00:55:29;;;;;;;7.45;6.30;;;;;;;0.95;84.52;99318.83;468653;1196;103612;-42
2021/04/13 01:05:36;;;;;;;12.60;8.30;;;;;;;0.89;83.98;99325.47;469158;1195;103562;-42
2021/04/13 01:15:41;;;;;;;13.77;7.30;;;;;;;0.86;84.40;99323.17;468570;1196;103225;-41
2021/04/13 01:37:07;;;;;;;9.43;6.07;;;;;;;0.68;85.18;99328.38;468808;1196;103592;-41
2021/04/13 01:47:12;;;;;;;5.43;3.97;;;;;;;0.58;85.87;99328.47;468439;1196;103156;-41
2021/04/13 02:17:58;;;;;;;6.35;3.80;;;;;;;0.59;85.80;99322.30;468570;1195;103274;-41
2021/04/13 02:28:04;;;;;;;5.15;3.70;;;;;;;0.57;85.53;99332.04;468379;1196;103299;-41
2021/04/13 02:38:08;;;;;;;5.70;2.77;;;;;;;0.56;85.99;99322.59;468302;1196;103332;-41
2021/04/13 02:48:17;;;;;;;5.67;2.90;;;;;;;0.52;86.03;99331.67;468975;1195;103267;-40
2021/04/13 02:58:27;;;;;;;8.60;3.33;;;;;;;0.51;85.95;99337.84;468916;1196;103564;-41
2021/04/13 03:08:37;;;;;;;6.90;4.40;;;;;;;0.58;85.56;99344.08;468858;1196;104188;-40
2021/04/13 03:18:46;;;;;;;12.53;7.30;;;;;;;0.61;85.42;99348.98;469167;1195;103539;-41
2021/04/13 03:28:57;;;;;;;6.77;5.33;;;;;;;0.63;85.48;99348.02;468794;1196;103200;-41
2021/04/13 03:39:04;;;;;;;5.93;3.83;;;;;;;0.63;85.53;99355.83;469365;1196;103211;-40
2021/04/13 03:49:10;;;;;;;7.70;3.23;;;;;;;0.66;85.08;99361.55;468346;1196;103571;-41
2021/04/13 03:59:16;;;;;;;10.17;4.53;;;;;;;0.68;85.07;99371.81;468181;1196;103210;-40
2021/04/13 04:09:21;;;;;;;7.67;5.43;;;;;;;0.78;84.73;99375.99;468377;1196;103615;-40
2021/04/13 04:19:26;;;;;;;16.30;9.30;;;;;;;0.82;84.19;99385.14;468976;1196;103596;-41
2021/04/13 04:29:44;;;;;;;15.93;10.20;;;;;;;0.81;84.43;99390.50;468373;1195;103628;-41
2021/04/13 04:40:21;;;;;;;19.30;10.47;;;;;;;0.80;84.35;99399.27;468909;1196;103274;-40
2021/04/13 04:50:26;;;;;;;16.57;8.17;;;;;;;0.85;84.06;99423.08;468555;1195;104617;-41
2021/04/13 05:00:30;;;;;;;15.07;7.87;;;;;;;0.88;84.04;99426.20;468761;1196;103551;-40
2021/04/13 05:10:34;;;;;;;18.10;8.15;;;;;;;0.90;84.26;99437.28;469175;1196;103597;-40
2021/04/13 05:20:38;;;;;;;14.50;9.03;;;;;;;0.95;84.63;99446.42;468880;1196;103204;-41
2021/04/13 05:41:08;;;;;;;17.40;7.60;;;;;;;1.11;84.46;99442.20;468430;1196;103596;-40
2021/04/13 05:51:13;;;;;;;9.27;4.70;;;;;;;1.20;83.97;99451.73;469163;1196;104630;-42
2021/04/13 06:01:20;;;;;;;10.80;4.60;;;;;;;1.22;84.03;99467.22;468475;1196;103227;-40
2021/04/13 06:11:27;;;;;;;14.03;8.37;;;;;;;1.27;83.95;99466.77;468434;1196;103226;-40
2021/04/13 06:21:31;;;;;;;17.23;9.53;;;;;;;1.36;83.81;99468.45;468792;1196;103734;-40
2021/04/13 06:31:36;;;;;;;14.07;8.17;;;;;;;1.37;83.53;99465.70;469342;1196;103516;-39
2021/04/13 06:42:06;;;;;;;11.70;7.27;;;;;;;1.57;83.71;99461.14;469407;1196;103559;-40
2021/04/13 06:52:10;;;;;;;15.23;9.05;;;;;;;1.61;83.63;99469.47;468131;1196;103520;-40
2021/04/13 07:02:16;;;;;;;21.67;9.80;;;;;;;1.76;83.40;99489.64;468839;1196;103597;-40
2021/04/13 07:12:26;;;;;;;13.13;6.37;;;;;;;1.93;83.35;99493.19;469369;1196;103267;-40
2021/04/13 07:22:34;;;;;;;41.27;15.23;;;;;;;2.09;82.97;99489.84;468545;1196;103606;-40
2021/04/13 07:32:39;;;;;;;18.10;9.55;;;;;;;2.12;82.92;99492.95;468724;1196;103568;-40
2021/04/13 07:42:46;;;;;;;23.40;11.73;;;;;;;2.17;82.89;99500.34;468603;1196;103242;-39
2021/04/13 07:52:59;;;;;;;28.00;10.00;;;;;;;2.29;82.59;99513.92;468781;1195;103219;-40
2021/04/13 08:03:04;;;;;;;14.33;8.67;;;;;;;2.37;82.22;99527.04;468712;1196;103255;-40
2021/04/13 08:13:12;;;;;;;16.40;9.40;;;;;;;2.50;82.41;99530.03;468443;1196;103548;-40
2021/04/13 08:23:36;;;;;;;23.23;12.33;;;;;;;2.42;82.93;99528.20;469166;1195;103204;-40
2021/04/13 08:33:48;;;;;;;14.57;8.90;;;;;;;2.46;81.96;99510.44;468515;1195;103213;-40
2021/04/13 08:43:51;;;;;;;14.80;8.77;;;;;;;2.51;81.74;99515.18;468939;1195;103682;-41
2021/04/13 08:54:03;;;;;;;16.90;9.40;;;;;;;2.58;81.67;99516.19;468871;1196;104741;-40
2021/04/13 09:04:10;;;;;;;16.50;8.87;;;;;;;2.64;81.85;99519.00;469093;1195;103245;-39
2021/04/13 09:14:18;;;;;;;53.37;18.37;;;;;;;2.72;82.03;99508.59;468736;1196;103252;-40
2021/04/13 09:24:25;;;;;;;14.97;9.47;;;;;;;2.81;81.67;99514.64;468913;1195;103587;-39
2021/04/13 09:35:02;;;;;;;11.35;8.10;;;;;;;2.86;81.14;99527.25;468564;1195;103254;-39
2021/04/13 09:55:46;;;;;;;14.55;8.35;;;;;;;3.49;81.21;99513.64;468373;1196;103571;-40
2021/04/13 10:05:52;;;;;;;20.13;11.87;;;;;;;3.33;80.57;99514.46;468275;1196;103216;-39
2021/04/13 10:16:11;;;;;;;19.37;13.63;;;;;;;3.37;80.26;99506.13;468400;1196;103635;-40
2021/04/13 10:26:48;;;;;;;14.95;8.95;;;;;;;3.52;80.32;99498.44;469089;1196;104287;-40
2021/04/13 10:37:28;;;;;;;17.35;10.10;;;;;;;3.94;80.41;99492.21;468284;1196;103200;-40
2021/04/13 10:48:02;;;;;;;16.63;10.87;;;;;;;4.22;79.51;99498.70;468423;1196;103523;-40
2021/04/13 10:58:39;;;;;;;15.25;10.15;;;;;;;4.22;78.81;99476.94;468347;1196;103241;-41
2021/04/13 11:09:09;;;;;;;8.63;6.90;;;;;;;4.39;78.34;99472.47;468829;1196;103267;-41
2021/04/13 11:19:22;;;;;;;9.43;7.07;;;;;;;4.71;78.08;99461.84;468224;1196;103227;-43
2021/04/13 11:30:08;;;;;;;11.95;8.70;;;;;;;4.90;78.27;99444.88;468184;1196;103545;-40
2021/04/13 11:40:15;;;;;;;13.95;8.50;;;;;;;5.01;77.38;99444.50;468198;1195;103209;-42
2021/04/13 11:50:23;;;;;;;9.00;6.00;;;;;;;5.35;77.12;99436.21;468479;1196;103278;-41
2021/04/13 12:00:30;;;;;;;11.25;7.30;;;;;;;5.34;75.98;99436.39;468937;1196;103207;-40
2021/04/13 12:10:55;;;;;;;11.37;7.53;;;;;;;5.58;74.92;99430.94;468378;1196;103213;-45
2021/04/13 12:20:59;;;;;;;8.67;4.80;;;;;;;5.48;75.42;99418.08;468275;1196;103522;-41
2021/04/13 12:41:55;;;;;;;11.83;6.87;;;;;;;5.28;74.29;99379.41;468510;1196;103670;-41
2021/04/13 12:52:02;;;;;;;6.70;4.27;;;;;;;5.43;73.86;99365.31;468146;1196;103498;-41
2021/04/13 13:02:10;;;;;;;10.57;7.07;;;;;;;5.36;73.68;99346.05;468274;1196;103207;-40
2021/04/13 13:12:17;;;;;;;10.40;5.40;;;;;;;5.63;73.94;99328.08;468629;1196;103715;-41
2021/04/13 13:22:25;;;;;;;7.87;5.17;;;;;;;5.81;73.73;99326.72;468868;1196;103553;-41
2021/04/13 13:32:31;;;;;;;18.10;9.75;;;;;;;5.74;73.05;99322.39;468236;1196;103656;-41
2021/04/13 13:42:37;;;;;;;11.70;8.47;;;;;;;5.66;73.34;99320.66;468225;1196;103153;-41
2021/04/13 13:52:43;;;;;;;28.83;15.47;;;;;;;5.49;73.21;99314.79;468689;1196;103603;-40
2021/04/13 14:02:47;;;;;;;12.17;8.87;;;;;;;5.40;73.08;99307.98;468547;1196;103283;-40
2021/04/13 14:12:51;;;;;;;15.10;11.45;;;;;;;5.37;72.02;99303.09;468761;1196;103527;-40
2021/04/13 14:23:06;;;;;;;17.10;12.30;;;;;;;5.34;72.47;99292.97;468380;1196;103229;-41
2021/04/13 14:33:15;;;;;;;13.90;9.57;;;;;;;5.59;72.20;99282.22;468524;1196;103790;-41
2021/04/13 14:43:20;;;;;;;19.60;13.05;;;;;;;5.61;72.14;99278.41;469313;1195;103225;-40
2021/04/13 14:53:26;;;;;;;24.70;16.87;;;;;;;5.51;71.39;99268.20;468241;1196;103313;-40
2021/04/13 15:03:30;;;;;;;27.97;20.20;;;;;;;5.39;71.26;99259.15;468283;1196;103584;-41
2021/04/13 15:13:34;;;;;;;19.30;13.17;;;;;;;5.45;71.72;99252.39;468158;1196;103249;-41
2021/04/13 15:23:38;;;;;;;55.50;27.50;;;;;;;5.44;71.60;99227.13;468420;1196;103262;-40
2021/04/13 15:33:46;;;;;;;27.30;17.80;;;;;;;5.27;71.17;99237.01;468986;1196;103222;-40
2021/04/13 15:43:51;;;;;;;33.43;24.80;;;;;;;5.04;71.37;99226.59;469153;1196;103201;-40
2021/04/13 15:53:58;;;;;;;24.53;16.23;;;;;;;5.00;71.75;99227.95;468946;1196;103229;-43
2021/04/13 16:04:04;;;;;;;51.13;26.67;;;;;;;4.92;71.26;99234.06;468150;1196;103606;-41
2021/04/13 16:14:09;;;;;;;58.40;30.80;;;;;;;4.87;71.66;99222.50;469609;1196;103235;-41
2021/04/13 16:24:15;;;;;;;68.93;36.77;;;;;;;4.77;71.99;99207.05;468868;1196;103232;-41
2021/04/13 16:34:22;;;;;;;46.55;25.10;;;;;;;4.72;72.50;99209.36;468736;1196;103520;-41
2021/04/13 16:44:29;;;;;;;28.15;18.50;;;;;;;4.79;72.35;99202.44;468700;1196;103602;-40
2021/04/13 16:54:34;;;;;;;36.15;21.20;;;;;;;4.83;72.22;99197.65;469093;1196;103551;-42
2021/04/13 17:04:44;;;;;;;39.30;23.97;;;;;;;4.77;72.35;99185.27;468591;1196;104399;-40
2021/04/13 17:14:59;;;;;;;63.10;35.37;;;;;;;4.60;72.50;99187.22;468273;1196;103235;-42
2021/04/13 17:25:09;;;;;;;80.30;40.23;;;;;;;4.46;72.41;99186.18;469129;1196;103222;-41
2021/04/13 17:35:13;;;;;;;44.23;26.30;;;;;;;4.47;72.63;99184.38;468595;1195;104678;-41
2021/04/13 17:45:17;;;;;;;46.53;27.60;;;;;;;4.55;72.94;99194.80;468022;1194;103575;-41
2021/04/13 17:55:24;;;;;;;95.80;51.73;;;;;;;4.48;73.21;99199.09;468115;1196;103518;-40
2021/04/13 18:05:33;;;;;;;102.20;56.60;;;;;;;4.42;73.19;99197.19;468295;1195;103622;-41
2021/04/13 18:15:37;;;;;;;90.87;46.57;;;;;;;4.36;73.56;99208.38;469270;1196;103226;-40
2021/04/13 18:25:49;;;;;;;81.17;46.10;;;;;;;4.24;73.76;99208.77;468673;1196;103216;-41
2021/04/13 18:35:54;;;;;;;71.70;42.65;;;;;;;4.25;73.76;99207.78;468405;1196;103212;-41
2021/04/13 18:46:07;;;;;;;76.63;42.40;;;;;;;4.33;73.73;99206.11;469015;1196;103662;-41
2021/04/13 18:56:10;;;;;;;146.70;66.25;;;;;;;4.31;73.92;99204.48;468244;1196;103568;-39
2021/04/13 19:06:22;;;;;;;147.20;71.97;;;;;;;4.36;74.11;99193.48;468044;1196;103271;-42
2021/04/13 19:16:31;;;;;;;134.13;65.67;;;;;;;4.16;73.66;99192.32;468042;1196;103219;-41
2021/04/13 19:26:36;;;;;;;157.33;77.20;;;;;;;4.11;74.20;99190.23;468346;1196;103140;-41
2021/04/13 19:36:43;;;;;;;135.17;69.43;;;;;;;4.21;73.89;99185.56;469203;1196;103384;-41
2021/04/13 19:46:49;;;;;;;62.33;33.77;;;;;;;4.27;74.34;99187.50;468665;1196;103236;-41
2021/04/13 19:56:59;;;;;;;115.93;54.47;;;;;;;4.16;73.75;99171.38;468302;1196;103238;-40
2021/04/13 20:07:04;;;;;;;124.90;57.43;;;;;;;4.01;73.97;99179.16;468913;1196;103593;-40
2021/04/13 20:17:11;;;;;;;104.85;48.45;;;;;;;3.98;74.32;99188.17;468834;1196;103198;-40
2021/04/13 20:27:20;;;;;;;48.93;25.83;;;;;;;3.99;73.78;99200.27;468411;1195;103232;-40
2021/04/13 20:47:53;;;;;;;20.07;9.63;;;;;;;4.24;72.82;99195.67;468284;1196;104708;-41
2021/04/13 20:58:01;;;;;;;23.23;10.17;;;;;;;4.26;70.60;99188.49;468873;1196;104320;-41
2021/04/13 21:08:08;;;;;;;23.55;10.05;;;;;;;4.31;69.00;99174.88;468821;1196;103252;-41
2021/04/13 21:18:14;;;;;;;21.07;9.60;;;;;;;4.27;68.60;99177.03;469100;1196;103488;-40
2021/04/13 21:38:41;;;;;;;9.55;5.30;;;;;;;4.31;66.21;99159.98;468880;1196;103600;-40
2021/04/13 21:48:51;;;;;;;4.00;2.63;;;;;;;4.24;66.54;99166.07;468606;1196;103207;-42
2021/04/13 21:58:58;;;;;;;9.23;2.90;;;;;;;3.99;67.91;99175.91;468929;1195;103693;-42
2021/04/13 22:09:09;;;;;;;10.33;3.40;;;;;;;3.88;67.87;99179.75;468977;1196;103220;-41
2021/04/13 22:19:17;;;;;;;7.17;3.93;;;;;;;3.70;68.48;99176.58;468737;1196;103216;-40
2021/04/13 22:29:28;;;;;;;7.13;4.00;;;;;;;3.54;70.19;99197.58;469174;1196;103494;-41
2021/04/13 22:49:52;;;;;;;13.43;4.53;;;;;;;2.89;72.45;99185.56;468392;1196;103207;-40
2021/04/13 23:00:00;;;;;;;8.20;4.20;;;;;;;2.67;73.46;99187.07;468897;1196;104780;-42
2021/04/13 23:10:18;;;;;;;4.75;4.00;;;;;;;2.62;73.36;99175.50;468813;1196;103198;-42
2021/04/13 23:20:23;;;;;;;8.67;4.23;;;;;;;2.60;73.62;99177.43;468274;1196;103444;-41
2021/04/13 23:30:29;;;;;;;8.80;5.87;;;;;;;2.43;74.13;99169.64;468714;1196;103210;-41
2021/04/13 23:40:33;;;;;;;9.13;4.60;;;;;;;2.36;75.00;99154.78;469056;1195;103529;-41
2021/04/13 23:50:41;;;;;;;6.65;4.30;;;;;;;2.27;75.72;99151.37;469023;1196;103525;-43
